Time;durP1;ratioP1;P1;durP2;ratioP2;P2;SDS_P1;SDS_P2;PMS_P1;PMS_P2;Temp;Humidity;BMP_temperature;BMP_pressure;BME280_temperature;BME280_humidity;BME280_pressure;Samples;Min_cycle;Max_cycle;Signal;HPM_P1;HPM_P2
2022/03/22 00:02:23;;;;;;;70.57;31.13;;;;;;;-0.15;74.35;101848.09;5076987;28;20037;-78
2022/03/22 00:05:08;;;;;;;67.28;30.90;;;;;;;-0.13;72.39;101851.66;5047939;28;20044;-78
2022/03/22 00:07:53;;;;;;;70.70;31.83;;;;;;;-0.25;72.40;101836.47;5061984;28;20044;-78
2022/03/22 00:10:38;;;;;;;69.82;29.38;;;;;;;-0.29;73.09;101850.00;5076685;28;20433;-78
2022/03/22 00:13:28;;;;;;;64.38;29.55;;;;;;;-0.30;72.99;101844.75;5076585;28;20102;-78
2022/03/22 00:16:13;;;;;;;74.80;30.70;;;;;;;-0.38;74.91;101854.66;5076629;28;20370;-78
2022/03/22 00:18:57;;;;;;;60.88;28.23;;;;;;;-0.40;73.24;101845.09;5045097;28;20052;-78
2022/03/22 00:21:42;;;;;;;71.57;30.67;;;;;;;-0.56;76.96;101846.84;5076352;28;20051;-78
2022/03/22 00:24:26;;;;;;;65.72;28.20;;;;;;;-0.57;76.59;101834.78;5061460;28;20051;-78
2022/03/22 00:27:11;;;;;;;64.22;27.17;;;;;;;-0.54;74.75;101834.97;5047496;28;20071;-78
2022/03/22 00:29:58;;;;;;;63.42;25.45;;;;;;;-0.58;76.15;101845.03;5076331;28;20048;-78
2022/03/22 00:32:42;;;;;;;64.40;28.45;;;;;;;-0.61;76.78;101837.16;5061492;28;20037;-78
2022/03/22 00:35:36;;;;;;;66.35;28.20;;;;;;;-0.54;74.86;101834.97;5061617;28;20041;-78
2022/03/22 00:38:21;;;;;;;;;;;;;;;-0.65;76.81;101848.97;5047964;28;20452;-78
2022/03/22 00:41:06;;;;;;;58.80;27.00;;;;;;;-0.73;77.52;101852.81;5061495;28;19920;-78
2022/03/22 00:43:51;;;;;;;63.80;26.42;;;;;;;-0.74;76.50;101836.50;5061457;28;20045;-78
2022/03/22 00:46:36;;;;;;;60.40;26.80;;;;;;;-0.77;76.25;101843.16;5076196;28;20056;-78
2022/03/22 00:49:21;;;;;;;60.63;26.33;;;;;;;-0.80;77.32;101848.16;5076066;28;20044;-78
2022/03/22 00:52:06;;;;;;;64.65;29.23;;;;;;;-0.85;78.59;101841.84;5076145;28;20052;-78
2022/03/22 00:54:51;;;;;;;60.78;27.08;;;;;;;-0.81;78.34;101842.13;5075978;28;20037;-78
2022/03/22 00:57:36;;;;;;;65.50;28.45;;;;;;;-0.83;77.39;101840.25;5061131;28;20052;-78
2022/03/22 01:00:24;;;;;;;60.00;25.48;;;;;;;-0.83;76.59;101840.25;5075985;28;20041;-78
2022/03/22 01:03:12;;;;;;;55.17;26.08;;;;;;;-0.97;78.47;101845.56;5075945;28;20119;-78
2022/03/22 01:05:59;;;;;;;57.58;26.38;;;;;;;-1.04;79.97;101839.97;5076054;28;20040;-78
2022/03/22 01:08:46;;;;;;;65.70;27.10;;;;;;;-1.02;78.90;101839.28;5075894;28;20421;-78
2022/03/22 01:11:30;;;;;;;58.20;26.40;;;;;;;-1.07;79.75;101829.53;5061004;28;20384;-78
2022/03/22 01:14:14;;;;;;;67.20;29.27;;;;;;;-1.09;80.19;101833.72;5060962;28;20052;-77
2022/03/22 01:16:59;;;;;;;66.53;29.65;;;;;;;-1.13;81.55;101826.66;5060886;28;20041;-78
2022/03/22 01:19:45;;;;;;;64.00;26.02;;;;;;;-1.07;78.95;101830.44;5061019;28;20393;-78
2022/03/22 01:22:30;;;;;;;61.55;26.70;;;;;;;-1.09;78.37;101821.75;5075796;28;20044;-78
2022/03/22 01:25:17;;;;;;;64.28;26.45;;;;;;;-1.14;80.07;101830.88;5075580;28;20033;-78
2022/03/22 01:28:04;;;;;;;58.55;25.60;;;;;;;-1.14;78.63;101830.00;5046897;28;20045;-78
2022/03/22 01:30:49;;;;;;;62.72;26.50;;;;;;;-1.19;80.43;101825.50;5060820;28;20094;-78
2022/03/22 01:33:33;;;;;;;55.58;23.35;;;;;;;-1.18;79.84;101826.38;5060808;28;20041;-78
2022/03/22 01:36:17;;;;;;;62.78;26.65;;;;;;;-1.29;82.16;101815.53;5047527;28;20052;-78
2022/03/22 01:39:03;;;;;;;58.72;27.17;;;;;;;-1.29;81.72;101822.34;5079626;28;20047;-78
2022/03/22 01:41:47;;;;;;;67.18;29.30;;;;;;;-1.32;82.67;101825.63;5079551;28;20048;-78
2022/03/22 01:44:32;;;;;;;71.18;27.75;;;;;;;-1.33;83.04;101825.53;5079467;28;20048;-78
2022/03/22 01:47:17;;;;;;;73.93;28.42;;;;;;;-1.35;82.26;101825.47;5079596;28;20080;-78
2022/03/22 01:50:07;;;;;;;63.42;27.17;;;;;;;-1.37;81.11;101808.19;5064651;28;20106;-78
2022/03/22 01:52:51;;;;;;;67.18;28.10;;;;;;;-1.37;80.99;101814.19;5079348;28;20040;-78
2022/03/22 01:55:36;;;;;;;71.90;28.52;;;;;;;-1.45;83.69;101816.34;5079438;28;20049;-78
2022/03/22 01:58:20;;;;;;;63.67;27.30;;;;;;;-1.44;82.63;101812.97;5079182;28;20119;-78
2022/03/22 02:07:13;;;;;;;67.80;30.33;;;;;;;-1.50;86.28;101797.22;5079107;28;20048;-78
2022/03/22 02:09:57;;;;;;;70.82;31.08;;;;;;;-1.53;86.92;101801.31;5079072;28;20041;-78
2022/03/22 02:12:44;;;;;;;70.65;30.55;;;;;;;-1.49;85.11;101787.84;5050090;28;20353;-78
2022/03/22 02:15:28;;;;;;;72.40;31.75;;;;;;;-1.45;85.72;101802.63;5078845;28;20040;-78
2022/03/22 02:18:13;;;;;;;69.80;28.67;;;;;;;-1.44;84.26;101796.66;5078916;28;20037;-78
2022/03/22 02:20:59;;;;;;;72.70;32.15;;;;;;;-1.45;84.60;101807.75;5050154;28;20047;-78
2022/03/22 02:23:50;;;;;;;68.20;29.77;;;;;;;-1.45;85.34;101800.06;5063977;28;20040;-78
2022/03/22 02:26:36;;;;;;;63.60;28.67;;;;;;;-1.44;84.92;101799.25;5063623;28;20053;-78
2022/03/22 02:29:21;;;;;;;62.15;29.55;;;;;;;-1.45;84.56;101800.06;5063861;28;20353;-78
2022/03/22 02:32:09;;;;;;;58.00;26.83;;;;;;;-1.44;83.97;101800.13;5049868;28;20064;-78
2022/03/22 02:34:53;;;;;;;63.72;28.80;;;;;;;-1.46;83.80;101796.59;5049621;28;20036;-78
2022/03/22 02:37:37;;;;;;;65.78;28.27;;;;;;;-1.42;81.82;101802.78;5049480;28;20048;-78
2022/03/22 02:40:21;;;;;;;59.25;28.25;;;;;;;-1.50;81.50;101792.06;5063664;28;20044;-78
2022/03/22 02:43:05;;;;;;;64.70;26.52;;;;;;;-1.57;83.93;101795.09;5078450;28;20120;-78
2022/03/22 02:45:50;;;;;;;63.75;27.63;;;;;;;-1.55;83.68;101797.78;5063548;28;20110;-78
2022/03/22 02:48:34;;;;;;;62.00;27.00;;;;;;;-1.60;84.07;101788.91;5049155;28;20047;-78
2022/03/22 02:51:18;;;;;;;63.05;27.10;;;;;;;-1.58;83.25;101790.78;5078393;28;20045;-78
2022/03/22 02:54:03;;;;;;;61.75;26.63;;;;;;;-1.57;82.71;101794.22;5078463;28;20048;-78
2022/03/22 02:56:47;;;;;;;60.08;26.45;;;;;;;-1.61;82.45;101810.28;5078128;28;20093;-78
2022/03/22 02:59:32;;;;;;;59.58;25.35;;;;;;;-1.68;83.90;101806.50;5063333;28;20425;-78
2022/03/22 03:02:16;;;;;;;59.05;29.45;;;;;;;-1.76;86.16;101812.88;5046643;28;20052;-78
2022/03/22 03:05:00;;;;;;;66.93;29.42;;;;;;;-1.71;86.94;101806.31;5063357;28;20044;-78
2022/03/22 03:07:45;;;;;;;63.17;27.67;;;;;;;-1.70;87.01;101813.22;5046597;28;20445;-78
2022/03/22 03:10:29;;;;;;;65.55;28.70;;;;;;;-1.70;86.25;101810.66;5049140;28;20045;-78
2022/03/22 03:13:14;;;;;;;61.72;28.80;;;;;;;-1.63;85.37;101809.31;5077881;28;20044;-78
2022/03/22 03:15:58;;;;;;;66.07;29.65;;;;;;;-1.59;83.94;101813.81;5062999;28;20123;-78
2022/03/22 03:18:43;;;;;;;60.05;28.08;;;;;;;-1.65;84.47;101816.94;5077693;28;20045;-78
2022/03/22 03:21:27;;;;;;;62.13;28.40;;;;;;;-1.68;86.78;101816.78;5077756;28;20041;-78
2022/03/22 03:24:12;;;;;;;61.22;28.77;;;;;;;-1.61;86.19;101816.31;5062948;28;20098;-78
2022/03/22 03:26:57;;;;;;;65.47;29.85;;;;;;;-1.60;84.45;101815.50;5077568;28;20057;-78
2022/03/22 03:29:41;;;;;;;61.65;27.38;;;;;;;-1.56;82.74;101813.97;5062796;28;20349;-78
2022/03/22 03:32:26;;;;;;;76.95;31.13;;;;;;;-1.64;84.06;101808.44;5060261;28;20055;-78
2022/03/22 03:35:10;;;;;;;69.93;30.15;;;;;;;-1.65;85.01;101816.94;5077556;28;20063;-78
2022/03/22 03:37:54;;;;;;;67.30;28.73;;;;;;;-1.63;84.65;101817.91;5045714;28;20044;-78
2022/03/22 03:43:42;;;;;;;67.03;28.67;;;;;;;-1.66;83.08;101818.63;5077278;28;20092;-78
2022/03/22 03:49:34;;;;;;;66.80;31.00;;;;;;;-1.73;85.47;101818.19;5062574;28;20075;-78
2022/03/22 03:52:23;;;;;;;73.75;31.30;;;;;;;-1.77;86.67;101808.53;5077321;28;20360;-78
2022/03/22 03:55:08;;;;;;;69.38;29.40;;;;;;;-1.78;85.93;101807.66;5062251;28;20052;-78
2022/03/22 03:57:52;;;;;;;63.47;29.20;;;;;;;-1.73;84.29;101818.19;5077014;28;20036;-78
2022/03/22 04:00:37;;;;;;;63.95;29.83;;;;;;;-1.80;85.95;101816.06;5076452;28;20064;-78
2022/03/22 04:03:21;;;;;;;64.68;29.42;;;;;;;-1.89;88.15;101813.84;5062193;28;20041;-78
2022/03/22 04:06:06;;;;;;;89.88;33.90;;;;;;;-1.89;89.77;101813.84;5062095;28;20048;-78
2022/03/22 04:08:51;;;;;;;68.68;31.17;;;;;;;-1.83;89.47;101824.47;5076918;28;20105;-78
2022/03/22 04:11:35;;;;;;;68.32;30.52;;;;;;;-1.84;87.83;101825.28;5061976;28;20352;-78
2022/03/22 04:14:20;;;;;;;74.85;29.67;;;;;;;-1.87;88.46;101817.41;5076821;28;20040;-78
2022/03/22 04:17:07;;;;;;;65.20;29.05;;;;;;;-1.87;86.50;101827.69;5076838;28;20366;-78
2022/03/22 04:19:53;;;;;;;66.20;30.42;;;;;;;-2.00;88.92;101818.38;5047911;28;20040;-78
2022/03/22 04:22:37;;;;;;;63.50;29.30;;;;;;;-1.97;87.72;101821.13;5061873;28;20487;-78
2022/03/22 04:25:21;;;;;;;66.15;29.13;;;;;;;-1.96;87.29;101829.72;5076511;28;20403;-78
2022/03/22 04:34:13;;;;;;;67.32;30.30;;;;;;;-2.12;89.24;101833.97;5061801;28;20345;-78
2022/03/22 04:36:57;;;;;;;68.88;29.67;;;;;;;-2.21;89.49;101825.75;5047746;28;20391;-78
2022/03/22 04:39:44;;;;;;;66.55;30.27;;;;;;;-2.16;91.15;101832.00;5061504;28;20058;-78
2022/03/22 04:42:28;;;;;;;70.22;31.00;;;;;;;-2.14;90.71;101835.56;5076592;28;20381;-78
2022/03/22 04:45:14;;;;;;;68.10;32.00;;;;;;;-2.22;91.31;101825.63;5061916;28;20444;-78
2022/03/22 04:47:59;;;;;;;69.18;31.85;;;;;;;-2.24;94.64;101829.78;5076558;28;20497;-78
2022/03/22 04:50:43;;;;;;;63.47;30.75;;;;;;;-2.22;93.49;101839.34;5077078;28;20063;-78
2022/03/22 04:56:49;;;;;;;70.27;30.23;;;;;;;-2.23;91.41;101836.72;5044884;28;20048;-78
2022/03/22 04:59:34;;;;;;;74.63;30.17;;;;;;;-2.23;93.40;101839.28;5076679;28;20048;-78
2022/03/22 05:02:18;;;;;;;75.10;31.98;;;;;;;-2.15;93.62;101848.31;5076753;28;20044;-78
2022/03/22 05:05:03;;;;;;;73.78;33.28;;;;;;;-2.12;91.42;101849.38;5076508;28;20036;-78
2022/03/22 05:07:47;;;;;;;65.00;31.70;;;;;;;-2.10;91.16;101852.03;5076768;28;20078;-78
2022/03/22 05:10:36;;;;;;;72.82;31.25;;;;;;;-2.10;90.35;101849.47;5046934;28;20037;-78
2022/03/22 05:13:21;;;;;;;74.45;33.30;;;;;;;-2.12;91.13;101849.38;5058890;28;20072;-78
2022/03/22 05:16:06;;;;;;;73.78;32.40;;;;;;;-2.10;92.95;101849.47;5061362;28;20040;-78
2022/03/22 05:18:51;;;;;;;74.93;34.47;;;;;;;-2.08;93.10;101846.97;5061193;28;20060;-78
2022/03/22 05:21:36;;;;;;;77.22;35.72;;;;;;;-2.08;94.81;101847.88;5061775;28;20098;-78
2022/03/22 05:24:20;;;;;;;85.22;37.00;;;;;;;-2.05;95.01;101845.47;5061615;28;20045;-78
2022/03/22 05:27:06;;;;;;;81.88;36.92;;;;;;;-1.96;94.84;101851.16;5046951;28;20057;-78
2022/03/22 05:29:50;;;;;;;83.70;38.17;;;;;;;-1.86;93.92;101852.56;5076405;28;20037;-78
2022/03/22 05:32:35;;;;;;;85.03;37.72;;;;;;;-1.74;93.23;101858.41;5075841;28;20053;-78
2022/03/22 05:35:19;;;;;;;94.47;41.53;;;;;;;-1.65;92.43;101856.38;5061177;28;20049;-78
2022/03/22 05:38:04;;;;;;;92.15;41.15;;;;;;;-1.53;92.11;101857.84;5075735;28;20036;-78
2022/03/22 05:40:48;;;;;;;99.63;43.28;;;;;;;-1.44;92.04;101858.38;5076430;28;20045;-78
2022/03/22 05:43:33;;;;;;;101.07;42.60;;;;;;;-1.27;91.18;101846.44;5075867;28;20040;-78
2022/03/22 05:46:18;;;;;;;97.22;43.53;;;;;;;-0.90;90.23;101857.06;5061198;28;20051;-78
2022/03/22 05:49:02;;;;;;;87.25;39.92;;;;;;;0.09;87.42;101850.13;5060833;28;20352;-79
2022/03/22 05:51:46;;;;;;;92.38;39.90;;;;;;;0.88;81.36;101846.25;5061339;28;20044;-79
2022/03/22 05:54:32;;;;;;;85.93;37.88;;;;;;;1.62;77.90;101841.81;5075611;28;20045;-76
2022/03/22 05:57:16;;;;;;;87.95;40.67;;;;;;;2.53;76.71;101851.63;5061281;28;20044;-76
2022/03/22 06:00:01;;;;;;;86.47;41.03;;;;;;;3.15;73.19;101837.66;5060739;28;20040;-76
2022/03/22 06:02:45;;;;;;;85.40;38.45;;;;;;;3.73;69.44;101839.75;5060706;28;20359;-76
2022/03/22 06:05:30;;;;;;;92.55;41.25;;;;;;;4.16;65.26;101837.72;5076036;28;20043;-75
2022/03/22 06:08:14;;;;;;;90.20;41.45;;;;;;;4.74;63.94;101849.13;5060885;28;20048;-75
2022/03/22 06:10:59;;;;;;;78.90;38.33;;;;;;;5.20;61.46;101847.91;5074973;28;20036;-75
2022/03/22 06:13:43;;;;;;;77.40;39.90;;;;;;;5.85;60.93;101851.47;5059410;28;20036;-75
2022/03/22 06:16:27;;;;;;;72.80;36.63;;;;;;;5.97;57.09;101849.22;5058627;28;20090;-75
2022/03/22 06:19:12;;;;;;;73.45;36.13;;;;;;;5.98;54.61;101844.88;5058656;28;20041;-75
2022/03/22 06:21:56;;;;;;;78.47;39.80;;;;;;;5.84;52.53;101847.97;5059874;28;20051;-78
2022/03/22 06:24:40;;;;;;;64.90;36.33;;;;;;;6.98;53.95;101843.81;5079210;28;20048;-85
2022/03/22 06:27:25;;;;;;;81.50;38.22;;;;;;;7.32;52.72;101852.38;5049445;28;20044;-84
2022/03/22 06:30:10;;;;;;;83.70;38.45;;;;;;;7.94;50.02;101849.22;5076909;28;20044;-84
2022/03/22 06:32:58;;;;;;;78.82;40.55;;;;;;;7.67;49.53;101840.03;5062074;28;20040;-84
2022/03/22 06:35:46;;;;;;;78.43;38.78;;;;;;;8.61;49.91;101841.66;5062058;28;20429;-84
2022/03/22 06:38:32;;;;;;;79.50;40.35;;;;;;;8.72;48.35;101844.44;5076801;28;20563;-84
2022/03/22 06:41:16;;;;;;;78.50;40.95;;;;;;;9.26;47.57;101833.88;5062988;28;20047;-84
2022/03/22 06:44:01;;;;;;;78.35;41.80;;;;;;;8.57;46.35;101842.47;5077499;28;20052;-84
2022/03/22 06:46:45;;;;;;;80.47;43.05;;;;;;;9.08;46.38;101837.09;5062404;28;20123;-85
2022/03/22 06:49:29;;;;;;;83.28;43.35;;;;;;;9.02;47.96;101839.63;5049581;28;20040;-84
2022/03/22 06:52:14;;;;;;;75.50;42.53;;;;;;;9.34;46.41;101840.06;5078739;28;20083;-84
2022/03/22 06:54:58;;;;;;;77.38;43.33;;;;;;;10.09;46.38;101845.22;5078137;28;20040;-85
2022/03/22 06:57:44;;;;;;;70.93;39.40;;;;;;;10.55;44.73;101848.25;5062111;28;20072;-84
2022/03/22 07:00:31;;;;;;;67.68;38.90;;;;;;;10.08;43.81;101840.84;5076513;28;20628;-84
2022/03/22 07:03:15;;;;;;;77.95;42.83;;;;;;;10.89;43.85;101841.50;5061696;28;20417;-85
2022/03/22 07:06:00;;;;;;;75.35;42.60;;;;;;;11.58;41.90;101838.28;5061910;28;20090;-84
2022/03/22 07:08:44;;;;;;;74.45;40.92;;;;;;;11.97;42.02;101847.16;5063586;28;20421;-85
2022/03/22 07:14:31;;;;;;;71.22;40.90;;;;;;;12.13;38.25;101852.44;5063212;28;20352;-85
2022/03/22 07:17:16;;;;;;;69.93;39.20;;;;;;;12.41;39.69;101857.69;5047186;28;20048;-82
2022/03/22 07:20:00;;;;;;;69.38;37.78;;;;;;;12.47;39.40;101860.31;5061241;28;20041;-82
2022/03/22 07:22:45;;;;;;;66.13;36.58;;;;;;;13.21;38.94;101852.28;5075968;28;20403;-82
2022/03/22 07:25:32;;;;;;;67.90;38.83;;;;;;;13.57;38.59;101859.16;5046826;28;20190;-82
2022/03/22 07:28:17;;;;;;;65.85;37.10;;;;;;;13.74;37.32;101861.72;5061378;28;20523;-83
2022/03/22 07:31:03;;;;;;;63.78;36.35;;;;;;;13.55;35.42;101847.75;5076544;28;20128;-83
2022/03/22 07:33:48;;;;;;;59.75;35.38;;;;;;;13.90;36.07;101852.84;5061720;28;20040;-83
2022/03/22 07:36:36;;;;;;;63.95;35.70;;;;;;;14.11;35.30;101858.88;5062881;28;20037;-83
2022/03/22 07:39:22;;;;;;;64.82;34.53;;;;;;;14.17;34.64;101854.41;5062657;28;20044;-83
2022/03/22 07:42:06;;;;;;;68.43;35.55;;;;;;;14.61;35.08;101850.53;5049125;28;20047;-83
2022/03/22 07:44:52;;;;;;;68.93;37.17;;;;;;;14.85;33.87;101846.81;5062610;28;20058;-83
2022/03/22 07:47:37;;;;;;;62.22;35.50;;;;;;;14.32;34.02;101855.16;5048946;28;20087;-83
2022/03/22 07:53:24;;;;;;;58.65;31.08;;;;;;;14.89;33.21;101847.66;5062491;28;20045;-83
2022/03/22 07:56:09;;;;;;;59.70;34.88;;;;;;;15.13;32.24;101850.00;5063228;28;20082;-83
2022/03/22 07:58:54;;;;;;;59.70;34.30;;;;;;;15.11;32.46;101840.34;5062295;28;20036;-83
2022/03/22 08:01:38;;;;;;;58.25;35.25;;;;;;;15.43;32.51;101843.44;5048472;28;20064;-83
2022/03/22 08:04:22;;;;;;;57.67;31.27;;;;;;;15.25;31.34;101843.72;5048762;28;20429;-83
2022/03/22 08:07:09;;;;;;;49.28;30.08;;;;;;;15.26;30.97;101839.28;5048719;28;20044;-83
2022/03/22 08:09:53;;;;;;;56.03;28.83;;;;;;;15.52;30.56;101846.88;5062647;28;20063;-83
2022/03/22 08:12:38;;;;;;;52.65;30.75;;;;;;;15.66;29.39;101831.72;5077384;28;20036;-84
2022/03/22 08:15:22;;;;;;;68.50;35.08;;;;;;;15.72;29.24;101839.56;5077017;28;20036;-86
2022/03/22 08:18:07;;;;;;;46.83;27.73;;;;;;;16.00;30.30;101836.53;5061912;28;20050;-86
2022/03/22 08:20:51;;;;;;;39.10;24.65;;;;;;;15.91;29.28;101823.47;5047811;28;20045;-86
2022/03/22 08:23:36;;;;;;;44.95;26.92;;;;;;;15.76;28.64;101832.47;5062170;28;20040;-85
2022/03/22 08:26:20;;;;;;;50.30;27.38;;;;;;;16.03;28.25;101829.44;5076539;28;20052;-86
2022/03/22 08:29:06;;;;;;;48.95;28.05;;;;;;;15.97;28.39;101826.03;5048346;28;20047;-85
2022/03/22 08:31:51;;;;;;;48.28;25.33;;;;;;;15.97;27.41;101834.81;5062273;28;20036;-86
2022/03/22 08:34:35;;;;;;;47.28;26.02;;;;;;;16.07;27.32;101823.19;5077013;28;20051;-85
2022/03/22 08:37:19;;;;;;;46.42;26.52;;;;;;;15.70;27.79;101814.97;5061523;28;20120;-86
2022/03/22 08:40:05;;;;;;;44.50;28.65;;;;;;;15.98;27.80;101831.25;5048158;28;20044;-86
2022/03/22 08:42:52;;;;;;;40.42;25.65;;;;;;;16.02;28.04;101834.72;5048083;28;20048;-86
2022/03/22 08:45:37;;;;;;;48.47;27.60;;;;;;;16.02;27.97;101832.09;5047598;28;20051;-85
2022/03/22 08:48:22;;;;;;;39.00;26.50;;;;;;;15.92;27.92;101825.19;5061479;28;20044;-85
2022/03/22 08:51:07;;;;;;;37.85;23.75;;;;;;;15.94;28.28;101819.00;5030978;28;20063;-85
2022/03/22 08:53:53;;;;;;;39.08;24.48;;;;;;;15.92;28.56;101828.72;5076485;28;20044;-85
2022/03/22 08:56:38;;;;;;;41.20;26.35;;;;;;;16.15;28.95;101823.06;5061711;28;20049;-85
2022/03/22 08:59:22;;;;;;;36.75;25.02;;;;;;;16.01;28.19;101823.28;5058750;28;20048;-85
2022/03/22 09:02:06;;;;;;;38.47;21.83;;;;;;;16.04;28.47;101817.97;5061355;28;20102;-85
2022/03/22 09:07:58;;;;;;;37.97;24.73;;;;;;;15.64;29.26;101805.31;5044705;28;20044;-88
2022/03/22 09:10:43;;;;;;;38.30;23.98;;;;;;;15.84;29.33;101814.75;5047341;28;20044;-85
2022/03/22 09:13:28;;;;;;;43.53;25.98;;;;;;;15.91;29.47;101826.09;5047350;28;20105;-85
2022/03/22 09:16:14;;;;;;;37.95;23.98;;;;;;;15.95;29.05;101812.81;5047600;28;20112;-85
2022/03/22 09:18:58;;;;;;;37.78;24.05;;;;;;;16.12;29.68;101815.22;5047578;28;20044;-85
2022/03/22 09:21:43;;;;;;;39.22;23.58;;;;;;;16.19;28.96;101801.00;5076272;28;20044;-86
2022/03/22 09:24:28;;;;;;;38.67;24.15;;;;;;;16.19;28.95;101819.50;5061086;28;20052;-86
2022/03/22 09:27:12;;;;;;;36.55;22.98;;;;;;;16.03;28.65;101807.44;5076153;28;20048;-86
2022/03/22 09:29:57;;;;;;;39.80;22.70;;;;;;;16.16;29.42;101795.75;5076470;28;20045;-86
2022/03/22 09:32:45;;;;;;;39.83;25.30;;;;;;;16.36;29.35;101798.03;5061054;28;20040;-86
2022/03/22 09:35:30;;;;;;;34.50;22.40;;;;;;;16.53;28.87;101797.75;5075805;28;20056;-86
2022/03/22 09:38:15;;;;;;;38.47;20.75;;;;;;;16.76;28.39;101789.41;5061063;28;20059;-86
2022/03/22 09:41:00;;;;;;;30.70;19.65;;;;;;;16.73;28.03;101790.28;5075737;28;20045;-86
2022/03/22 09:43:47;;;;;;;37.90;22.08;;;;;;;16.82;27.97;101789.28;5060904;28;20405;-86
2022/03/22 09:46:34;;;;;;;33.15;21.90;;;;;;;16.87;27.14;101783.91;5076153;28;20047;-86
2022/03/22 09:49:19;;;;;;;36.55;22.30;;;;;;;17.04;27.21;101789.72;5061125;28;20040;-86
2022/03/22 09:52:03;;;;;;;35.33;22.15;;;;;;;17.21;27.42;101784.06;5060881;28;20045;-86
2022/03/22 09:54:48;;;;;;;34.35;21.98;;;;;;;17.40;27.40;101784.56;5075842;28;20425;-86
2022/03/22 09:57:33;;;;;;;33.05;21.20;;;;;;;17.45;27.27;101782.66;5061798;28;20044;-86
2022/03/22 10:00:18;;;;;;;34.15;21.35;;;;;;;17.32;27.96;101783.84;5051194;28;20116;-86
2022/03/22 10:03:02;;;;;;;28.85;20.20;;;;;;;17.43;26.94;101773.91;5065078;28;20040;-86
2022/03/22 10:06:05;;;;;;;29.65;20.25;;;;;;;17.66;27.40;101766.28;5064223;28;20036;-86
2022/03/22 10:08:50;;;;;;;29.50;18.65;;;;;;;17.88;27.12;101768.47;5079129;28;20063;-87
2022/03/22 10:11:42;;;;;;;28.65;19.63;;;;;;;17.79;26.32;101774.84;5064364;28;20051;-88
2022/03/22 10:14:40;;;;;;;30.60;18.25;;;;;;;17.86;26.45;101763.19;5064521;28;20060;-87
2022/03/22 10:17:28;;;;;;;30.70;20.13;;;;;;;17.96;26.26;101769.13;5064091;28;20041;-87
2022/03/22 10:20:24;;;;;;;29.23;20.13;;;;;;;18.07;26.51;101763.53;5048866;28;20128;-86
2022/03/22 10:23:10;;;;;;;24.70;18.92;;;;;;;18.16;25.55;101769.47;5062311;28;20044;-86
2022/03/22 10:26:03;;;;;;;24.85;18.45;;;;;;;18.25;25.26;101759.56;5076876;28;20357;-86
2022/03/22 10:28:54;;;;;;;27.55;18.65;;;;;;;18.55;25.16;101757.88;5077078;28;20386;-86
2022/03/22 10:31:40;;;;;;;26.35;18.00;;;;;;;18.75;25.27;101755.59;5063199;28;20051;-85
2022/03/22 10:34:31;;;;;;;23.65;16.73;;;;;;;18.76;24.80;101749.34;5062464;28;20063;-87
2022/03/22 10:37:25;;;;;;;26.23;16.20;;;;;;;18.96;24.53;101758.53;5078122;28;20040;-87
2022/03/22 10:40:28;;;;;;;24.00;17.40;;;;;;;19.02;24.53;101755.69;5049870;28;20110;-87
2022/03/22 10:43:18;;;;;;;26.00;16.63;;;;;;;18.89;25.32;101757.84;5063862;28;20048;-87
2022/03/22 10:46:04;;;;;;;27.52;16.40;;;;;;;19.02;25.15;101750.38;5049705;28;20072;-86
2022/03/22 10:48:49;;;;;;;23.05;16.30;;;;;;;19.27;24.23;101745.19;5049723;28;20429;-85
2022/03/22 10:51:42;;;;;;;32.17;20.58;;;;;;;19.42;24.22;101749.16;5064283;28;20131;-86
2022/03/22 10:54:27;;;;;;;;;;;;;;;19.47;24.47;101748.09;5064341;28;20048;-87
2022/03/22 10:57:14;;;;;;;26.23;16.02;;;;;;;19.58;23.20;101740.66;5078029;28;19924;-87
2022/03/22 11:00:04;;;;;;;30.55;20.00;;;;;;;19.60;23.69;101732.66;5077988;28;20040;-86
2022/03/22 11:02:52;;;;;;;27.73;17.38;;;;;;;19.77;22.18;101738.31;5063467;28;20108;-84
2022/03/22 11:05:40;;;;;;;34.90;22.95;;;;;;;19.70;21.96;101730.59;5063514;28;20043;-85
2022/03/22 11:08:27;;;;;;;34.30;23.05;;;;;;;19.46;22.13;101735.72;5063161;28;20403;-84
2022/03/22 11:11:12;;;;;;;19.45;13.90;;;;;;;19.41;22.56;101715.56;5063531;28;20036;-85
2022/03/22 11:13:57;;;;;;;21.92;15.35;;;;;;;19.61;22.64;101727.25;5063450;28;20040;-85
2022/03/22 11:16:44;;;;;;;20.33;14.50;;;;;;;19.82;22.93;101720.44;5063112;28;20041;-86
2022/03/22 11:19:29;;;;;;;22.88;15.77;;;;;;;19.80;22.66;101708.97;5063542;28;20045;-86
2022/03/22 11:22:16;;;;;;;30.40;18.08;;;;;;;19.80;22.44;101708.09;5064907;28;20047;-84
2022/03/22 11:25:11;;;;;;;26.20;18.23;;;;;;;19.85;22.36;101699.03;5062675;28;20393;-89
2022/03/22 11:28:08;;;;;;;27.67;16.48;;;;;;;19.74;21.58;101701.19;5062920;28;20049;-86
2022/03/22 11:30:53;;;;;;;20.08;15.00;;;;;;;19.84;21.63;101709.72;5077934;28;20045;-86
2022/03/22 11:36:50;;;;;;;21.85;14.45;;;;;;;19.79;22.05;101701.03;5062644;28;20036;-88
2022/03/22 11:42:38;;;;;;;23.05;16.42;;;;;;;20.10;22.36;101687.56;5062555;28;20045;-88
2022/03/22 11:45:25;;;;;;;24.63;15.50;;;;;;;20.24;22.32;101684.41;5048943;28;20036;-91
2022/03/22 11:48:09;;;;;;;19.20;14.40;;;;;;;20.10;22.09;101676.06;5062690;28;20060;-86
2022/03/22 11:51:03;;;;;;;19.30;15.32;;;;;;;20.07;21.99;101685.00;5049771;28;20044;-94
2022/03/22 11:53:47;;;;;;;20.38;14.60;;;;;;;20.19;22.71;101678.38;5063910;28;20412;-94
2022/03/22 11:56:33;;;;;;;23.13;15.32;;;;;;;20.30;22.52;101679.72;5079949;28;20045;-94
2022/03/22 11:59:19;;;;;;;22.05;14.20;;;;;;;20.42;21.75;101672.22;5050533;28;20117;-94
2022/03/22 12:02:05;;;;;;;20.40;13.45;;;;;;;20.28;21.82;101673.59;5063759;28;20052;-93
2022/03/22 12:04:52;;;;;;;16.98;13.43;;;;;;;20.28;21.84;101675.41;5063856;28;20352;-93
2022/03/22 12:07:39;;;;;;;22.63;14.77;;;;;;;20.52;22.24;101676.31;5078403;28;20353;-94
2022/03/22 12:10:23;;;;;;;20.42;14.20;;;;;;;20.45;21.97;101673.00;5064866;28;20401;-94
2022/03/22 12:13:07;;;;;;;22.08;14.60;;;;;;;20.33;22.25;101669.91;5049609;28;20044;-94
2022/03/22 12:15:59;;;;;;;20.17;13.98;;;;;;;19.69;22.19;101665.91;5063288;28;20045;-77
2022/03/22 12:18:44;;;;;;;18.02;13.43;;;;;;;20.04;22.85;101658.50;5062432;28;20048;-77
2022/03/22 12:21:30;;;;;;;18.83;13.57;;;;;;;20.16;22.69;101663.41;5047950;28;20443;-77
2022/03/22 12:24:14;;;;;;;18.80;13.10;;;;;;;20.30;22.62;101662.91;5047861;28;20094;-77
2022/03/22 12:27:09;;;;;;;22.17;13.68;;;;;;;20.36;22.51;101653.84;5055754;28;20045;-77
2022/03/22 12:29:55;;;;;;;28.45;14.50;;;;;;;20.32;22.93;101658.41;5055802;28;20426;-77
2022/03/22 12:32:39;;;;;;;22.63;14.23;;;;;;;20.34;22.28;101653.88;5056424;28;20044;-77
2022/03/22 12:35:25;;;;;;;21.33;14.43;;;;;;;20.29;23.00;101654.06;5056794;28;20037;-77
2022/03/22 12:38:09;;;;;;;21.75;13.77;;;;;;;20.37;23.08;101639.59;5056667;28;20045;-79
2022/03/22 12:40:54;;;;;;;23.20;15.15;;;;;;;20.27;22.73;101634.59;5055669;28;20054;-79
2022/03/22 12:43:45;;;;;;;22.70;15.27;;;;;;;20.31;22.55;101643.34;5056947;28;20041;-77
2022/03/22 12:46:29;;;;;;;21.75;12.80;;;;;;;20.23;22.08;101632.13;5057090;28;20353;-92
2022/03/22 12:49:14;;;;;;;17.13;11.60;;;;;;;19.79;22.17;101622.16;5057739;28;20048;-91
2022/03/22 12:52:00;;;;;;;15.43;12.20;;;;;;;20.02;22.52;101613.38;5042367;28;20410;-91
2022/03/22 12:54:45;;;;;;;19.23;12.52;;;;;;;20.18;21.91;101619.00;5056815;28;20095;-96
2022/03/22 12:57:29;;;;;;;17.02;12.25;;;;;;;20.25;22.23;101619.66;5055854;28;20068;-94
2022/03/22 13:00:32;;;;;;;19.55;13.40;;;;;;;20.04;22.62;101618.63;5055619;28;20116;-91
2022/03/22 13:03:17;;;;;;;21.77;14.60;;;;;;;19.65;22.26;101618.22;5056501;28;20335;-95
2022/03/22 13:06:02;;;;;;;19.58;13.07;;;;;;;19.65;22.20;101608.47;5055369;28;20052;-94
2022/03/22 13:11:52;;;;;;;15.63;12.80;;;;;;;19.95;22.26;101608.31;5055495;28;20041;-92
2022/03/22 13:17:46;;;;;;;15.77;12.15;;;;;;;19.95;22.49;101598.53;5055553;28;20048;-92